METAR Data
IDs: Format: Raw Decoded Include TAF

Data at: 0625 UTC 24 Sep 2018

KMOR 240615Z AUTO 05004KT 10SM OVC070 22/21 A3011 RMK A01
KMOR 240555Z AUTO 00000KT 10SM OVC060 22/21 A3011 RMK A01
KMOR 240535Z AUTO 00000KT 10SM BKN060 OVC075 22/21 A3011 RMK A01
KMOR 240515Z AUTO 11004KT 10SM SCT060 OVC075 22/21 A3011 RMK A01
KMOR 240455Z AUTO 10005KT 10SM FEW060 OVC075 22/21 A3011 RMK A01
KMOR 240435Z AUTO 10004KT 10SM OVC075 22/21 A3011 RMK A01
KMOR 240415Z AUTO 02004KT 10SM OVC070 22/21 A3010 RMK A01
KMOR 240355Z AUTO 02005KT 10SM BKN065 OVC075 22/21 A3011 RMK A01
KMOR 240335Z AUTO 02004KT 10SM FEW039 OVC060 22/21 A3011 RMK A01
KMOR 240315Z AUTO 00000KT 10SM FEW046 BKN060 OVC075 22/21 A3011 RMK A01
KMOR 240255Z AUTO 00000KT 10SM BKN050 OVC075 23/21 A3011 RMK A01
KMOR 240235Z AUTO 00000KT 10SM OVC050 23/21 A3011 RMK A01
KMOR 240215Z AUTO 10004KT 10SM BKN055 OVC075 22/21 A3011 RMK A01
KMOR 240155Z AUTO 00000KT 10SM OVC055 23/21 A3011 RMK A01
KMOR 240135Z AUTO 00000KT 10SM OVC055 23/21 A3010 RMK A01
KMOR 240115Z AUTO 00000KT 10SM BKN055 BKN070 BKN110 23/21 A3010 RMK A01
KMOR 240055Z AUTO 00000KT 10SM SCT055 BKN110 23/21 A3009 RMK A01
KMOR 240035Z AUTO 00000KT 10SM FEW055 SCT075 OVC110 23/21 A3008 RMK A01
KMOR 240015Z AUTO 00000KT 10SM BKN055 BKN075 OVC090 23/21 A3009 RMK A01
KMOR 232355Z AUTO 00000KT 10SM SCT055 BKN090 OVC110 23/21 A3007 RMK A01
KMOR 232335Z AUTO 16003KT 10SM OVC110 23/20 A3008 RMK A01
KMOR 232315Z AUTO 00000KT 10SM OVC110 24/20 A3007 RMK A01
KMOR 232255Z AUTO 02004KT 10SM OVC100 24/20 A3007 RMK A01
KMOR 232235Z AUTO 02004KT 10SM BKN100 BKN120 24/20 A3006 RMK A01
KMOR 232215Z AUTO 01007KT 10SM FEW120 24/20 A3006 RMK A01
KMOR 232155Z AUTO 02005KT 10SM SCT100 BKN120 24/20 A3006 RMK A01
KMOR 232135Z AUTO 02007KT 10SM SCT100 SCT120 24/20 A3006 RMK A01
KMOR 232115Z AUTO 02006KT 10SM FEW100 SCT120 25/20 A3006 RMK A01
KMOR 232055Z AUTO 03006KT 10SM BKN100 25/20 A3006 RMK A01
KMOR 232035Z AUTO 02005G11KT 10SM SCT110 25/20 A3006 RMK A01
KMOR 232015Z AUTO 01008KT 10SM SCT095 SCT120 26/20 A3005 RMK A01
KMOR 231955Z AUTO 34007KT 10SM SCT095 BKN120 26/20 A3006 RMK A01
KMOR 231935Z AUTO 33004KT 10SM OVC095 27/20 A3006 RMK A01
KMOR 231915Z AUTO 33007KT 10SM OVC095 27/19 A3006 RMK A01
KMOR 231855Z AUTO 33005G10KT 10SM OVC100 27/19 A3007 RMK A01
KMOR 231835Z AUTO VRB06KT 10SM BKN100 BKN120 27/19 A3007 RMK A01
KMOR 231815Z AUTO VRB05G10KT 10SM BKN110 28/19 A3008 RMK A01
KMOR 231755Z AUTO VRB04KT 10SM BKN110 27/19 A3008 RMK A01
KMOR 231735Z AUTO VRB06KT 10SM FEW120 27/19 A3009 RMK A01
KMOR 231715Z AUTO VRB05KT 10SM FEW035 SCT041 SCT120 27/19 A3009 RMK A01
KMOR 231655Z AUTO 31006KT 10SM BKN034 BKN042 27/20 A3009 RMK A01
KMOR 231635Z AUTO 26004KT 10SM FEW033 28/20 A3009 RMK A01
KMOR 231615Z AUTO VRB03KT 10SM CLR 27/20 A3010 RMK A01
KMOR 231555Z AUTO VRB04KT 10SM CLR 27/21 A3010 RMK A01
KMOR 231535Z AUTO VRB03KT 10SM CLR 26/22 A3010 RMK A01
KMOR 231515Z AUTO 16004KT 10SM CLR 25/22 A3010 RMK A01
KMOR 231455Z AUTO 00000KT 10SM CLR 24/22 A3010 RMK A01
KMOR 231435Z AUTO 00000KT 10SM CLR 24/22 A3010 RMK A01
KMOR 231415Z AUTO 00000KT 10SM CLR 23/21 A3010 RMK A01
KMOR 231355Z AUTO 00000KT 10SM CLR 22/21 A3010 RMK A01
KMOR 231335Z AUTO 00000KT 7SM CLR 22/21 A3009 RMK A01
KMOR 231315Z AUTO 09003KT 6SM BR CLR 21/20 A3008 RMK A01
KMOR 231255Z AUTO 09004KT 6SM BR CLR 21/20 A3008 RMK A01
KMOR 231235Z AUTO 09004KT 8SM CLR 21/21 A3008 RMK A01
KMOR 231215Z AUTO 00000KT 7SM CLR 20/20 A3008 RMK A01
KMOR 231155Z AUTO 00000KT 6SM BR CLR 20/20 A3007 RMK A01
KMOR 231135Z AUTO 00000KT 2 1/2SM BR FEW050 20/20 A3007 RMK A01 VIS 1 1/2V5
KMOR 231115Z AUTO 00000KT 6SM BR FEW055 20/19 A3007 RMK A01
KMOR 231055Z AUTO 00000KT 9SM BKN055 20/20 A3006 RMK A01
KMOR 231035Z AUTO 09003KT 10SM OVC055 20/20 A3006 RMK A01
KMOR 231015Z AUTO 00000KT 10SM OVC055 20/20 A3006 RMK A01
KMOR 230955Z AUTO 00000KT 10SM SCT055 BKN065 20/20 A3006 RMK A01
KMOR 230935Z AUTO 09003KT 10SM BKN055 BKN065 20/20 A3006 RMK A01
KMOR 230915Z AUTO 08003KT 10SM OVC055 20/20 A3006 RMK A01
KMOR 230855Z AUTO 08003KT 10SM OVC055 20/20 A3006 RMK A01
KMOR 230835Z AUTO VRB03KT 10SM BKN050 OVC060 20/19 A3006 RMK A01
KMOR 230815Z AUTO 09003KT 10SM OVC055 20/19 A3005 RMK A01
KMOR 230755Z AUTO 05004KT 10SM OVC055 20/20 A3006 RMK A01
KMOR 230735Z AUTO 05003KT 9SM BKN050 20/20 A3006 RMK A01
KMOR 230715Z AUTO VRB03KT 10SM SCT050 20/20 A3006 RMK A01
KMOR 230655Z AUTO 10004KT 10SM BKN050 20/20 A3006 RMK A01
KMOR 230635Z AUTO 10003KT 10SM BKN050 OVC055 20/20 A3007 RMK A01
KMOR 230615Z AUTO 07003KT 10SM BKN050 BKN055 OVC080 21/20 A3007 RMK A01
KMOR 230555Z AUTO 06004KT 10SM OVC050 21/20 A3007 RMK A01
KMOR 230535Z AUTO 10003KT 10SM BKN050 OVC060 21/20 A3008 RMK A01
KMOR 230515Z AUTO 00000KT 10SM BKN055 BKN080 OVC120 21/20 A3008 RMK A01
KMOR 230455Z AUTO 00000KT 10SM FEW046 BKN055 OVC110 21/20 A3009 RMK A01
KMOR 230435Z AUTO 00000KT 10SM FEW050 SCT060 OVC110 21/20 A3009 RMK A01
KMOR 230415Z AUTO 11005KT 10SM BKN050 BKN060 OVC110 21/21 A3009 RMK A01
KMOR 230355Z AUTO 00000KT 10SM SCT049 OVC095 21/21 A3009 RMK A01
KMOR 230335Z AUTO 00000KT 10SM OVC090 21/21 A3008 RMK A01
KMOR 230315Z AUTO 00000KT 10SM FEW049 OVC090 22/21 A3008 RMK A01
KMOR 230255Z AUTO 05003KT 10SM SCT050 BKN075 OVC095 21/21 A3008 RMK A01 P0070
KMOR 230235Z AUTO 00000KT 6SM BR SCT003 BKN035 OVC070 22/21 A3008 RMK A01
KMOR 230215Z AUTO 18009G16KT 3/4SM BR BKN003 OVC021 22/21 A3010 RMK A01
KMOR 230155Z AUTO VRB05KT 10SM OVC047 25/21 A3008 RMK A01
KMOR 230135Z AUTO 01006KT 10SM BKN048 BKN060 BKN070 25/21 A3007 RMK A01
KMOR 230115Z AUTO 00000KT 10SM SCT050 SCT060 24/21 A3006 RMK A01
KMOR 230055Z AUTO 00000KT 10SM BKN050 OVC055 24/22 A3006 RMK A01
KMOR 230035Z AUTO 00000KT 10SM FEW048 OVC055 25/22 A3005 RMK A01
KMOR 230015Z AUTO 00000KT 10SM BKN055 BKN065 25/22 A3004 RMK A01
KMOR 222355Z AUTO 00000KT 10SM FEW055 SCT070 27/20 A3004 RMK A01
KMOR 222335Z AUTO 00000KT 10SM SCT060 BKN070 27/20 A3004 RMK A01
KMOR 222315Z AUTO 00000KT 10SM SCT060 27/21 A3004 RMK A01
KMOR 222255Z AUTO 00000KT 10SM CLR 28/21 A3004 RMK A01
KMOR 222235Z AUTO 00000KT 10SM CLR 28/21 A3004 RMK A01
KMOR 222215Z AUTO 10003KT 10SM CLR 29/20 A3003 RMK A01
KMOR 222155Z AUTO 00000KT 10SM FEW043 29/20 A3003 RMK A01
KMOR 222135Z AUTO 00000KT 10SM BKN042 BKN047 29/20 A3004 RMK A01
KMOR 222115Z AUTO 00000KT 10SM FEW047 FEW080 29/19 A3004 RMK A01
KMOR 222055Z AUTO VRB04KT 10SM FEW085 30/20 A3004 RMK A01
KMOR 222035Z AUTO 11004KT 10SM FEW060 FEW075 SCT085 29/20 A3004 RMK A01
KMOR 222015Z AUTO 13003KT 10SM FEW070 BKN080 BKN110 29/20 A3005 RMK A01
KMOR 221955Z AUTO 13005KT 10SM BKN042 OVC080 29/20 A3006 RMK A01
KMOR 221935Z AUTO VRB04KT 10SM OVC042 30/21 A3007 RMK A01
KMOR 221915Z AUTO 04004KT 10SM BKN041 OVC047 29/20 A3007 RMK A01
KMOR 221855Z AUTO VRB03KT 10SM BKN041 30/20 A3008 RMK A01
KMOR 221835Z AUTO 00000KT 10SM BKN040 BKN046 29/19 A3009 RMK A01